»·PEaware :: N630HR KBLH-KSLC

N630HR :: KBLH-KSLC

FLIGHT INFORMATION

Flight Status: Arrived
Operator: Privately registered:
United States
More flights under this callsign
Pilot: Drew L. (13237)
Aircraft: PILATUS PC-12 EAGLE
(PC12)
More flights by this aircraft type
Origin: KBLH Blythe
United States
Destination: KSLC Salt Lake City Intl
United States
More flights between these airports :: More routes between these airports
Route: EED MLF JAMMN5
File this flight plan on PilotEdge
Remarks:
Altitude:
(Current/Filed)
27,000ft
Speed:
(Current/Filed)
455kts
Departed: 09-Sep-17 11:38 AM
Arrived: 09-Sep-17 01:44 PM
Distance/Time
Traveled:
449nm/2:06
Distance/Time
To Go:
Arrived

Flight Plot

Page will automatically refresh every two minutes.

Flight plan parsing failed; only flown route is shown


Map Options




Map Legend


Flown Route
Filed Route
Departure Airport
Arrival Airport
Navaid (VOR, NDB)
Fix

Horizontal Profiles

Position Reports

Time Latitude Longitude Heading Altitude Ground
Speed
09-Sep-17 11:26 33.614191 -114.712158 0 400ft 0kts
09-Sep-17 11:27 33.614191 -114.712158 0 400ft 0kts
09-Sep-17 11:28 33.614191 -114.712158 0 400ft 0kts
09-Sep-17 11:29 33.614191 -114.712158 0 400ft 0kts
09-Sep-17 11:30 33.614191 -114.712158 0 400ft 0kts
09-Sep-17 11:31 33.614191 -114.712158 0 400ft 0kts
09-Sep-17 11:32 33.614191 -114.712158 0 400ft 0kts
09-Sep-17 11:33 33.614191 -114.712158 0 400ft 0kts
09-Sep-17 11:34 33.614191 -114.712158 0 400ft 0kts
09-Sep-17 11:35 33.614191 -114.712158 0 400ft 0kts
09-Sep-17 11:36 33.614191 -114.712158 0 400ft 0kts
09-Sep-17 11:37 33.615148 -114.713077 269 400ft 10kts
09-Sep-17 11:38 33.615132 -114.718977 273 400ft 19kts
09-Sep-17 11:39 33.615172 -114.725924 269 400ft 23kts
09-Sep-17 11:40 33.616608 -114.727422 90 400ft 0kts
09-Sep-17 11:41 33.616608 -114.727422 90 400ft 0kts
09-Sep-17 11:42 33.616736 -114.703119 91 875ft 115kts
09-Sep-17 11:43 33.617663 -114.662532 89 2311ft 121kts
09-Sep-17 11:44 33.619040 -114.622888 89 3775ft 122kts
09-Sep-17 11:45 33.647112 -114.615750 331 5057ft 145kts
09-Sep-17 11:46 33.685763 -114.641169 331 6134ft 173kts
09-Sep-17 11:47 33.728178 -114.668670 331 7494ft 177kts
09-Sep-17 11:48 33.775494 -114.680339 2 8823ft 181kts
09-Sep-17 11:49 33.825165 -114.673388 9 10105ft 185kts
09-Sep-17 11:50 33.875589 -114.663058 10 11348ft 189kts
09-Sep-17 11:51 33.927348 -114.652097 9 12677ft 194kts
09-Sep-17 11:52 33.979902 -114.641074 9 13705ft 194kts
09-Sep-17 11:53 34.030367 -114.630496 8 13829ft 172kts
09-Sep-17 11:54 34.071074 -114.623103 1 12340ft 149kts
09-Sep-17 11:55 34.101089 -114.600633 84 9911ft 150kts
09-Sep-17 11:56 34.106861 -114.550508 65 10245ft 159kts
09-Sep-17 11:57 34.140184 -114.517562 9 11556ft 172kts
09-Sep-17 11:58 34.187397 -114.531889 339 12761ft 183kts
09-Sep-17 11:59 34.235171 -114.551695 338 14029ft 187kts
09-Sep-17 12:00 34.285427 -114.569065 353 14992ft 204kts
09-Sep-17 12:01 34.341579 -114.564324 7 16033ft 207kts
09-Sep-17 12:02 34.394400 -114.553635 9 17101ft 211kts
09-Sep-17 12:03 34.451914 -114.541263 8 18131ft 216kts
09-Sep-17 12:04 34.510821 -114.528611 8 19099ft 220kts
09-Sep-17 12:05 34.570671 -114.515797 8 19996ft 224kts
09-Sep-17 12:06 34.631656 -114.502746 8 20832ft 227kts
09-Sep-17 12:07 34.693364 -114.489534 8 21607ft 231kts
09-Sep-17 12:08 34.756222 -114.476054 7 22371ft 234kts
09-Sep-17 12:09 34.818332 -114.454005 16 23004ft 238kts
09-Sep-17 12:10 34.876319 -114.431278 16 23984ft 226kts
09-Sep-17 12:11 34.936580 -114.407894 16 24570ft 232kts
09-Sep-17 12:12 34.997716 -114.384198 16 25145ft 236kts
09-Sep-17 12:13 35.060004 -114.359978 16 25685ft 239kts
09-Sep-17 12:14 35.120238 -114.336377 17 26196ft 243kts
09-Sep-17 12:15 35.183973 -114.311361 17 26781ft 244kts
09-Sep-17 12:16 35.248448 -114.286080 17 27194ft 253kts
09-Sep-17 12:17 35.317168 -114.259110 17 27219ft 273kts
09-Sep-17 12:18 35.389985 -114.230474 17 27228ft 285kts
09-Sep-17 12:19 35.465404 -114.200755 17 27226ft 292kts
09-Sep-17 12:20 35.540461 -114.171111 17 27217ft 282kts
09-Sep-17 12:21 35.612855 -114.142486 17 27219ft 276kts
09-Sep-17 12:22 35.684492 -114.114081 17 27221ft 272kts
09-Sep-17 12:23 35.755359 -114.085966 17 27216ft 271kts
09-Sep-17 12:24 35.825675 -114.057996 17 27215ft 270kts
09-Sep-17 12:25 35.896100 -114.029944 17 27219ft 269kts
09-Sep-17 12:26 35.958912 -114.004873 17 27224ft 269kts
09-Sep-17 12:27 36.024133 -113.978791 17 27223ft 269kts
09-Sep-17 12:28 36.094613 -113.950571 17 27209ft 270kts
09-Sep-17 12:29 36.160718 -113.924032 17 27189ft 269kts
09-Sep-17 12:30 36.230574 -113.895969 17 27203ft 267kts
09-Sep-17 12:31 36.299814 -113.868062 17 27216ft 266kts
09-Sep-17 12:32 36.369684 -113.839858 17 27225ft 269kts
09-Sep-17 12:33 36.440615 -113.811201 17 27225ft 274kts
09-Sep-17 12:34 36.512492 -113.782072 17 27225ft 277kts
09-Sep-17 12:35 36.584679 -113.752772 17 27225ft 278kts
09-Sep-17 12:36 36.657599 -113.723136 17 27225ft 279kts
09-Sep-17 12:37 36.730695 -113.693344 17 27226ft 280kts
09-Sep-17 12:38 36.803410 -113.663633 17 27226ft 281kts
09-Sep-17 12:39 36.877045 -113.633514 17 27227ft 281kts
09-Sep-17 12:40 36.950406 -113.603431 17 27227ft 282kts
09-Sep-17 12:41 37.023262 -113.573881 18 27227ft 283kts
09-Sep-17 12:42 37.096873 -113.544048 20 27229ft 283kts
09-Sep-17 12:43 37.170100 -113.513758 21 27218ft 281kts
09-Sep-17 12:44 37.231145 -113.488149 21 27219ft 280kts
09-Sep-17 12:45 37.316028 -113.452744 21 27224ft 280kts
09-Sep-17 12:46 37.388683 -113.422525 21 27242ft 279kts
09-Sep-17 12:47 37.461476 -113.392228 21 27271ft 278kts
09-Sep-17 12:48 37.533901 -113.362041 21 27298ft 278kts
09-Sep-17 12:49 37.593399 -113.337206 22 27313ft 279kts
09-Sep-17 12:50 37.666007 -113.306822 22 27317ft 280kts
09-Sep-17 12:51 37.751351 -113.271021 22 27317ft 281kts
09-Sep-17 12:52 37.811948 -113.245565 22 27318ft 281kts
09-Sep-17 12:53 37.885251 -113.214723 22 27318ft 282kts
09-Sep-17 12:54 37.958665 -113.183756 22 27317ft 282kts
09-Sep-17 12:55 38.031929 -113.152790 22 27311ft 283kts
09-Sep-17 12:56 38.104705 -113.121970 22 27299ft 283kts
09-Sep-17 12:57 38.178177 -113.090786 22 27285ft 282kts
09-Sep-17 12:58 38.251418 -113.059630 22 27284ft 281kts
09-Sep-17 12:59 38.324165 -113.028617 22 27285ft 280kts
09-Sep-17 13:00 38.396068 -112.994342 26 27286ft 278kts
09-Sep-17 13:01 38.466486 -112.956665 26 27286ft 278kts
09-Sep-17 13:02 38.533939 -112.920581 25 27277ft 275kts
09-Sep-17 13:03 38.602427 -112.883927 25 26615ft 271kts
09-Sep-17 13:04 38.670913 -112.847218 25 25936ft 269kts
09-Sep-17 13:05 38.738481 -112.810950 25 25325ft 265kts
09-Sep-17 13:06 38.804771 -112.775355 25 24709ft 260kts
09-Sep-17 13:07 38.870568 -112.739913 25 24077ft 258kts
09-Sep-17 13:08 38.935308 -112.704901 25 23483ft 256kts
09-Sep-17 13:09 39.000096 -112.669724 24 23082ft 256kts
09-Sep-17 13:10 39.063924 -112.635157 24 22871ft 252kts
09-Sep-17 13:11 39.114598 -112.607686 24 22667ft 251kts
09-Sep-17 13:12 39.167658 -112.578848 24 22448ft 249kts
09-Sep-17 13:13 39.229678 -112.545079 24 21819ft 244kts
09-Sep-17 13:14 39.291345 -112.511360 24 20938ft 242kts
09-Sep-17 13:15 39.354702 -112.487755 14 20268ft 233kts
09-Sep-17 13:16 39.411996 -112.469029 14 20244ft 201kts
09-Sep-17 13:17 39.462212 -112.452511 15 20243ft 177kts
09-Sep-17 13:18 39.513630 -112.435342 15 20317ft 221kts
09-Sep-17 13:19 39.577993 -112.413886 14 20291ft 259kts
09-Sep-17 13:20 39.649263 -112.390130 14 20277ft 276kts
09-Sep-17 13:21 39.723048 -112.365548 14 20010ft 273kts
09-Sep-17 13:22 39.794473 -112.341599 15 19101ft 274kts
09-Sep-17 13:23 39.866259 -112.317493 15 18292ft 271kts
09-Sep-17 13:24 39.937316 -112.293576 15 17692ft 266kts
09-Sep-17 13:25 40.007458 -112.269935 15 17256ft 258kts
09-Sep-17 13:26 40.071703 -112.248268 15 17253ft 241kts
09-Sep-17 13:27 40.132650 -112.227652 15 16921ft 232kts
09-Sep-17 13:28 40.194094 -112.206775 15 16175ft 233kts
09-Sep-17 13:29 40.255047 -112.186053 15 15442ft 229kts
09-Sep-17 13:30 40.315246 -112.165557 15 14726ft 226kts
09-Sep-17 13:31 40.374725 -112.145341 15 14042ft 222kts
09-Sep-17 13:32 40.433138 -112.125386 15 13384ft 220kts
09-Sep-17 13:33 40.491008 -112.105583 15 12749ft 217kts
09-Sep-17 13:34 40.548190 -112.085977 15 12147ft 214kts
09-Sep-17 13:35 40.604572 -112.066619 15 11556ft 212kts
09-Sep-17 13:36 40.660716 -112.065799 354 11230ft 195kts
09-Sep-17 13:37 40.710407 -112.071946 354 11226ft 171kts
09-Sep-17 13:38 40.754882 -112.077613 354 11228ft 156kts
09-Sep-17 13:39 40.796158 -112.082946 354 11230ft 146kts
09-Sep-17 13:40 40.836283 -112.088120 354 11150ft 171kts
09-Sep-17 13:41 40.887695 -112.094911 354 10294ft 187kts
09-Sep-17 13:42 40.928699 -112.074326 79 9317ft 179kts
09-Sep-17 13:43 40.938151 -112.010504 84 8331ft 177kts
09-Sep-17 13:44 40.913943 -111.960938 158 7230ft 165kts
09-Sep-17 13:45 40.869892 -111.962311 180 6166ft 160kts
09-Sep-17 13:46 40.827764 -111.962139 179 5099ft 141kts
09-Sep-17 13:47 40.794841 -111.962073 180 4233ft 83kts
09-Sep-17 13:48 40.786449 -111.961385 127 4230ft 11kts
09-Sep-17 13:49 40.782195 -111.960024 180 4230ft 28kts
09-Sep-17 13:50 40.778942 -111.958264 358 4230ft 0kts
09-Sep-17 13:51 40.778941 -111.958264 358 4230ft 0kts
09-Sep-17 13:52 40.778941 -111.958264 358 4230ft 0kts
09-Sep-17 13:53 40.778941 -111.958264 358 4230ft 0kts
09-Sep-17 13:54 40.778941 -111.958264 358 4230ft 0kts

Navigation Log

Ident Type
Flight plan parsing failed, navigation log unavailable